Time;durP1;ratioP1;P1;durP2;ratioP2;P2;SDS_P1;SDS_P2;PMS_P1;PMS_P2;Temp;Humidity;BMP_temperature;BMP_pressure;BME280_temperature;BME280_humidity;BME280_pressure;Samples;Min_cycle;Max_cycle;Signal;HPM_P1;HPM_P2
2023/08/16 00:00:53;;;;;;;;;3.67;3.67;;;;;23.31;56.48;101724.09;2030754;28;2754529;-74
2023/08/16 00:02:03;;;;;;;;;2.00;2.00;;;;;23.30;55.77;101730.47;2016891;28;2742969;-74
2023/08/16 00:03:14;;;;;;;;;2.33;2.33;;;;;23.29;55.92;101723.38;2039342;28;2724216;-74
2023/08/16 00:04:24;;;;;;;;;3.67;3.00;;;;;23.29;56.29;101728.72;1988346;28;2746573;-74
2023/08/16 00:05:36;;;;;;;;;3.00;3.00;;;;;23.31;55.89;101726.78;2031786;28;2736911;-74
2023/08/16 00:06:47;;;;;;;;;3.33;2.67;;;;;23.32;56.24;101725.84;2017322;28;2728426;-74
2023/08/16 00:08:00;;;;;;;;;3.67;2.50;;;;;23.36;56.10;101729.16;2037133;28;2725286;-74
2023/08/16 00:09:11;;;;;;;;;3.67;3.67;;;;;23.38;55.76;101729.91;1990898;28;2748260;-74
2023/08/16 00:10:22;;;;;;;;;5.00;4.00;;;;;23.40;55.94;101727.09;2024782;28;2746203;-74
2023/08/16 00:11:34;;;;;;;;;3.00;3.00;;;;;23.40;55.67;101730.66;2035529;28;2735139;-75
2023/08/16 00:12:44;;;;;;;;;4.00;4.00;;;;;23.38;55.54;101728.06;2011107;28;2741996;-74
2023/08/16 00:13:55;;;;;;;;;3.00;3.00;;;;;23.38;55.88;101725.38;2026519;28;2743546;-74
2023/08/16 00:15:07;;;;;;;;;4.00;3.00;;;;;23.37;56.13;101721.00;2024689;28;2739935;-75
2023/08/16 00:16:20;;;;;;;;;2.83;2.67;;;;;23.38;56.11;101725.38;2041919;28;2736186;-75
2023/08/16 00:17:30;;;;;;;;;4.00;2.33;;;;;23.38;56.12;101720.00;1989826;28;2737757;-75
2023/08/16 00:18:41;;;;;;;;;2.00;2.00;;;;;23.37;56.09;101712.09;2035957;28;2750354;-75
2023/08/16 00:19:52;;;;;;;;;4.00;2.00;;;;;23.38;55.77;101721.84;2030214;28;2744108;-76
2023/08/16 00:21:03;;;;;;;;;3.00;3.00;;;;;23.40;55.74;101719.06;2024248;28;2744011;-75
2023/08/16 00:22:15;;;;;;;;;2.25;2.25;;;;;23.40;55.57;101719.91;2036048;28;2724265;-75
2023/08/16 00:23:25;;;;;;;;;4.00;3.00;;;;;23.40;55.71;101721.75;2009966;28;2750959;-75
2023/08/16 00:24:36;;;;;;;;;3.33;3.33;;;;;23.41;55.49;101715.41;2033188;28;2754504;-75
2023/08/16 00:25:47;;;;;;;;;2.00;2.00;;;;;23.42;55.88;101722.47;2027752;28;2747229;-76
2023/08/16 00:26:59;;;;;;;;;4.00;2.75;;;;;23.42;55.86;101714.44;2035665;28;2733608;-75
2023/08/16 00:28:09;;;;;;;;;3.67;3.67;;;;;23.43;55.92;101718.84;2010681;28;2745094;-76
2023/08/16 00:29:20;;;;;;;;;3.67;3.33;;;;;23.44;55.68;101721.41;2027078;28;2754525;-78
2023/08/16 00:30:32;;;;;;;;;3.50;3.00;;;;;23.45;55.93;101711.53;2035784;28;2731527;-78
2023/08/16 00:31:45;;;;;;;;;3.00;3.00;;;;;23.45;55.91;101716.91;2036367;28;2741992;-76
2023/08/16 00:32:58;;;;;;;;;3.50;3.00;;;;;23.45;55.34;101716.91;2020598;28;2734674;-77
2023/08/16 00:34:09;;;;;;;;;5.00;3.33;;;;;23.44;55.49;101715.16;1990528;28;2746249;-73
2023/08/16 00:35:20;;;;;;;;;3.00;3.00;;;;;23.45;55.40;101717.75;2025914;28;2752501;-73
2023/08/16 00:36:30;;;;;;;;;3.33;3.00;;;;;23.45;55.99;101716.91;2022970;28;2739957;-73
2023/08/16 00:37:43;;;;;;;;;3.25;3.25;;;;;23.46;55.19;101718.59;2043335;28;2735692;-73
2023/08/16 00:38:53;;;;;;;;;3.00;3.00;;;;;23.47;55.09;101720.31;2016947;28;2744042;-73
2023/08/16 00:40:05;;;;;;;;;5.00;2.67;;;;;23.46;55.09;101719.47;2035196;28;2738818;-73
2023/08/16 00:41:16;;;;;;;;;3.00;3.00;;;;;23.43;55.25;101717.03;2016118;28;2739291;-73
2023/08/16 00:42:27;;;;;;;;;5.00;3.00;;;;;23.42;55.38;101717.97;2025132;28;2733615;-73
2023/08/16 00:43:39;;;;;;;;;3.00;3.00;;;;;23.42;55.13;101717.97;2036325;28;2729541;-71
2023/08/16 00:44:49;;;;;;;;;3.00;3.00;;;;;23.42;55.58;101717.97;1989595;28;2746129;-71
2023/08/16 00:46:00;;;;;;;;;3.00;3.00;;;;;23.42;55.55;101717.13;2027940;28;2750284;-71
2023/08/16 00:47:12;;;;;;;;;3.75;2.25;;;;;23.42;55.56;101709.94;2036414;28;2746118;-71
2023/08/16 00:48:26;;;;;;;;;4.67;2.67;;;;;23.42;55.34;101715.28;2036619;28;2737762;-71
2023/08/16 00:49:40;;;;;;;;;4.67;2.67;;;;;23.42;55.29;101703.69;1989108;28;2746633;-71
2023/08/16 00:50:53;;;;;;;;;3.33;3.33;;;;;23.41;55.14;101705.53;2036653;28;2734636;-71
2023/08/16 00:52:07;;;;;;;;;2.00;2.00;;;;;23.40;55.39;101692.22;2021161;28;2748190;-71
2023/08/16 00:53:18;;;;;;;;;3.00;2.33;;;;;23.37;55.04;101699.53;2003354;28;2738910;-70
2023/08/16 00:54:29;;;;;;;;;4.67;3.00;;;;;23.36;55.58;101695.13;2021788;28;2742985;-70
2023/08/16 00:55:40;;;;;;;;;4.00;4.00;;;;;23.35;55.96;101696.13;2010885;28;2740978;-71
2023/08/16 00:56:53;;;;;;;;;3.60;3.60;;;;;23.36;56.02;101691.63;2043685;28;2734633;-71
2023/08/16 00:58:04;;;;;;;;;4.00;2.00;;;;;23.35;55.49;101693.44;2014971;28;2743063;-71
2023/08/16 00:59:14;;;;;;;;;2.67;2.67;;;;;23.34;55.69;101693.53;2024537;28;2745053;-71
2023/08/16 01:00:27;;;;;;;;;4.00;3.00;;;;;23.32;55.59;101690.97;2017925;28;2745096;-71
2023/08/16 01:01:38;;;;;;;;;3.00;3.00;;;;;23.33;55.67;101694.50;2011819;28;2741961;-71
2023/08/16 01:02:49;;;;;;;;;4.00;2.67;;;;;23.31;55.46;101694.59;2019864;28;3458575;-72
2023/08/16 01:03:59;;;;;;;;;5.67;4.00;;;;;23.32;55.73;101685.59;2019123;28;2754514;-72
2023/08/16 01:05:10;;;;;;;;;4.00;4.00;;;;;23.33;55.95;101691.84;2023536;28;2752506;-71
2023/08/16 01:06:21;;;;;;;;;3.00;3.00;;;;;23.34;55.99;101691.72;2021200;28;2746170;-71
2023/08/16 01:07:32;;;;;;;;;3.00;3.00;;;;;23.35;55.43;101684.53;2013393;28;2750275;-71
2023/08/16 01:08:43;;;;;;;;;2.67;2.67;;;;;23.37;55.71;101679.91;2028736;28;2739845;-71
2023/08/16 01:09:54;;;;;;;;;4.00;3.00;;;;;23.39;55.92;101686.00;2031402;28;2748185;-71
2023/08/16 01:11:29;;;;;;;;;2.50;2.50;;;;;23.42;55.63;101680.44;2044542;28;2729432;-71
2023/08/16 01:12:57;;;;;;;;;3.00;3.00;;;;;23.42;55.68;101679.56;2012000;28;2746216;-71
2023/08/16 01:14:30;;;;;;;;;4.33;2.00;;;;;23.45;55.88;101682.03;2037485;28;2735695;-70
2023/08/16 01:15:49;;;;;;;;;2.83;2.83;;;;;23.46;55.90;101681.03;2022793;28;2724323;-70
2023/08/16 01:16:59;;;;;;;;;3.00;3.00;;;;;23.46;55.27;101681.03;1997139;28;2754506;-70
2023/08/16 01:18:12;;;;;;;;;2.33;2.00;;;;;23.45;55.38;101679.34;2012996;28;2735746;-71
2023/08/16 01:19:31;;;;;;;;;3.00;3.00;;;;;23.46;55.52;101687.25;2043837;28;2735677;-72
2023/08/16 01:20:47;;;;;;;;;3.00;2.33;;;;;23.45;55.45;101679.34;1987352;28;2750344;-72
2023/08/16 01:22:27;;;;;;;;;3.00;3.00;;;;;23.43;55.65;101686.66;2036740;28;2734957;-72
2023/08/16 01:24:25;;;;;;;;;2.83;2.00;;;;;23.41;55.26;101688.59;2013235;28;2736813;-72
2023/08/16 01:25:49;;;;;;;;;2.00;2.00;;;;;23.41;55.23;101694.78;2012127;28;2734616;-72
2023/08/16 01:27:03;;;;;;;;;2.00;2.00;;;;;23.41;56.06;101693.97;2023722;28;2727414;-72
2023/08/16 01:28:18;;;;;;;;;2.00;2.00;;;;;23.41;55.59;101689.44;2021773;28;2737746;-72
2023/08/16 01:29:32;;;;;;;;;5.00;4.00;;;;;23.42;55.88;101687.59;2022363;28;2741977;-73
2023/08/16 01:30:45;;;;;;;;;3.00;3.00;;;;;23.44;55.98;101691.91;1995568;28;2750346;-72
2023/08/16 01:31:58;;;;;;;;;4.50;2.33;;;;;23.45;55.52;101687.38;2045825;28;2728399;-73
2023/08/16 01:33:13;;;;;;;;;4.00;3.00;;;;;23.47;55.39;101693.50;2017184;28;2725275;-73
2023/08/16 01:34:23;;;;;;;;;4.00;3.00;;;;;23.47;55.28;101691.69;1988495;28;2752442;-73
2023/08/16 01:35:35;;;;;;;;;3.00;3.00;;;;;23.46;55.12;101697.13;2039248;28;2724205;-76
2023/08/16 01:36:48;;;;;;;;;4.00;2.33;;;;;23.44;54.91;101694.56;2023932;28;2744010;-75
2023/08/16 01:37:59;;;;;;;;;3.00;3.00;;;;;23.44;55.50;101688.34;1996512;28;2736736;-76
2023/08/16 01:39:11;;;;;;;;;4.00;3.00;;;;;23.44;54.97;101699.06;2041326;28;2733662;-75
2023/08/16 01:40:28;;;;;;;;;2.83;2.83;;;;;23.43;55.26;101692.00;2015927;28;2732542;-75
2023/08/16 01:41:50;;;;;;;;;3.00;3.00;;;;;23.43;55.37;101692.00;2026525;28;2737778;-75
2023/08/16 01:43:04;;;;;;;;;2.00;2.00;;;;;23.43;55.51;101694.69;1999004;28;2750276;-75
2023/08/16 01:44:18;;;;;;;;;4.50;2.50;;;;;23.43;55.83;101700.06;2045173;28;2733611;-75
2023/08/16 01:45:29;;;;;;;;;3.00;3.00;;;;;23.43;55.47;101698.25;1989403;28;2744370;-75
2023/08/16 01:46:43;;;;;;;;;4.00;3.00;;;;;23.42;55.17;101695.66;2037429;28;2733670;-74
2023/08/16 01:47:58;;;;;;;;;5.33;3.00;;;;;23.40;54.82;101702.97;2038080;28;2737750;-74
2023/08/16 01:49:13;;;;;;;;;2.00;2.00;;;;;23.37;55.03;101702.22;2024036;28;2734676;-74
2023/08/16 01:50:26;;;;;;;;;4.00;3.00;;;;;23.35;55.09;101701.47;2017239;28;2734624;-74
2023/08/16 01:51:37;;;;;;;;;3.67;2.00;;;;;23.32;54.97;101701.69;1989102;28;2746520;-74
2023/08/16 01:52:48;;;;;;;;;5.00;3.00;;;;;23.32;55.14;101706.19;2019205;28;2737756;-74
2023/08/16 01:54:00;;;;;;;;;3.00;3.00;;;;;23.30;55.21;101706.31;2036710;28;2734110;-74
2023/08/16 01:55:11;;;;;;;;;5.00;2.00;;;;;23.28;55.32;101705.56;2013073;28;2748229;-74
2023/08/16 01:56:23;;;;;;;;;2.40;2.40;;;;;23.27;55.63;101706.53;2044072;28;2737793;-75
2023/08/16 01:57:37;;;;;;;;;3.17;2.00;;;;;23.27;55.25;101704.72;2019859;28;2737757;-75
2023/08/16 01:58:47;;;;;;;;;3.33;2.00;;;;;23.28;55.66;101705.56;1987661;28;2749306;-75
2023/08/16 02:00:00;;;;;;;;;3.00;3.00;;;;;23.28;55.10;101705.56;2037490;28;2740910;-74
2023/08/16 02:01:10;;;;;;;;;7.00;2.67;;;;;23.27;55.24;101707.41;2012866;28;2749295;-74
2023/08/16 02:02:21;;;;;;;;;3.67;3.00;;;;;23.26;55.61;101712.88;2028983;28;2734660;-74
2023/08/16 02:03:33;;;;;;;;;2.00;2.00;;;;;23.27;54.81;101711.91;2018514;28;2748260;-74
2023/08/16 02:04:46;;;;;;;;;2.83;2.83;;;;;23.27;54.92;101709.22;2036909;28;2748200;-74
2023/08/16 02:05:56;;;;;;;;;4.00;3.00;;;;;23.27;55.04;101711.91;1991858;28;2739863;-74
2023/08/16 02:07:07;;;;;;;;;5.00;3.00;;;;;23.26;54.80;101703.00;2037273;28;2751397;-76
2023/08/16 02:08:19;;;;;;;;;3.00;3.00;;;;;23.26;55.15;101712.88;2036437;28;2730521;-76
2023/08/16 02:09:30;;;;;;;;;2.67;2.67;;;;;23.24;54.83;101712.97;2009351;28;2738818;-76
2023/08/16 02:10:41;;;;;;;;;2.00;2.00;;;;;23.23;55.73;101703.22;2042006;28;2739863;-75
2023/08/16 02:11:54;;;;;;;;;2.00;1.00;;;;;23.23;55.48;101703.22;2038776;28;2727380;-75
2023/08/16 02:13:07;;;;;;;;;2.50;2.50;;;;;23.26;55.32;101703.00;2014338;28;2739845;-76
2023/08/16 02:14:21;;;;;;;;;3.00;2.67;;;;;23.26;55.51;101697.63;2014817;28;2739159;-75
2023/08/16 02:15:31;;;;;;;;;3.00;3.00;;;;;23.28;55.09;101702.91;1988464;28;2754514;-74
2023/08/16 02:16:42;;;;;;;;;2.00;2.00;;;;;23.26;54.82;101697.63;2039102;28;2750801;-75
2023/08/16 02:17:53;;;;;;;;;2.00;2.00;;;;;23.25;54.67;101695.94;2019559;28;2754430;-77
2023/08/16 02:19:04;;;;;;;;;3.67;3.67;;;;;23.26;54.27;101696.78;2031043;28;2750360;-80
2023/08/16 02:20:16;;;;;;;;;3.00;3.00;;;;;23.25;54.81;101693.25;2035921;28;2735136;-73
2023/08/16 02:21:26;;;;;;;;;3.33;2.00;;;;;23.25;55.54;101695.06;2011751;28;2751295;-74
2023/08/16 02:22:37;;;;;;;;;2.67;2.67;;;;;23.25;55.26;101705.78;2039253;28;2737827;-74
2023/08/16 02:23:50;;;;;;;;;3.00;3.00;;;;;23.25;54.83;101703.97;2018725;28;2729806;-72
2023/08/16 02:25:01;;;;;;;;;1.00;1.00;;;;;23.24;55.06;101702.25;1988114;28;2735713;-72
2023/08/16 02:26:12;;;;;;;;;3.00;3.00;;;;;23.24;54.90;101699.56;2036383;28;2735697;-72
2023/08/16 02:27:25;;;;;;;;;2.67;2.67;;;;;23.23;54.91;101697.00;2020630;28;2735682;-73
2023/08/16 02:28:35;;;;;;;;;3.00;3.00;;;;;23.23;54.80;101697.00;1996115;28;2752419;-73
2023/08/16 02:29:46;;;;;;;;;3.00;1.33;;;;;23.22;54.97;101695.28;2042731;28;2746449;-73
2023/08/16 02:31:06;;;;;;;;;2.67;2.33;;;;;23.22;55.35;101700.63;2015512;28;2746105;-73
2023/08/16 02:32:16;;;;;;;;;3.67;2.00;;;;;23.21;54.77;101693.59;1990542;28;2752339;-73
2023/08/16 02:33:27;;;;;;;;;3.00;3.00;;;;;23.21;55.08;101699.78;2037232;28;2727350;-73
2023/08/16 02:34:41;;;;;;;;;2.67;2.00;;;;;23.21;55.40;101691.72;2035463;28;2744020;-73
2023/08/16 02:35:54;;;;;;;;;3.67;3.00;;;;;23.21;55.14;101689.06;2021815;28;2737808;-72
2023/08/16 02:37:07;;;;;;;;;3.00;2.00;;;;;23.22;54.67;101687.22;2014136;28;2746118;-72
2023/08/16 02:38:18;;;;;;;;;4.00;2.00;;;;;23.22;54.55;101688.09;1992159;28;2754420;-72
2023/08/16 02:39:30;;;;;;;;;3.60;2.20;;;;;23.22;54.25;101690.78;2036375;28;2744038;-73
2023/08/16 02:40:41;;;;;;;;;1.00;1.00;;;;;23.22;54.69;101689.91;2020018;28;2731523;-73
2023/08/16 02:41:54;;;;;;;;;2.00;2.00;;;;;23.21;54.27;101694.41;2019997;28;2746123;-72
2023/08/16 02:43:07;;;;;;;;;3.33;2.50;;;;;23.21;54.26;101698.94;2038319;28;2738128;-72
2023/08/16 02:44:20;;;;;;;;;3.00;2.17;;;;;23.19;54.33;101699.03;2013580;28;2744018;-72
2023/08/16 02:45:35;;;;;;;;;1.33;1.33;;;;;23.16;53.75;101692.06;2020737;28;2735685;-72
2023/08/16 02:46:48;;;;;;;;;1.83;1.83;;;;;23.13;54.16;101692.31;2022647;28;2734638;-72
2023/08/16 02:48:01;;;;;;;;;2.50;1.50;;;;;23.13;54.89;101697.69;2022164;28;2735686;-72
2023/08/16 02:49:14;;;;;;;;;4.00;3.00;;;;;23.14;55.02;101694.00;2019541;28;2738275;-72
2023/08/16 02:50:28;;;;;;;;;2.33;2.00;;;;;23.14;54.73;101699.38;2014757;28;2735677;-72
2023/08/16 02:51:41;;;;;;;;;2.00;2.00;;;;;23.16;54.04;101694.75;2015688;28;2733088;-72
2023/08/16 02:52:54;;;;;;;;;2.00;2.00;;;;;23.17;54.75;101695.63;2017207;28;2748223;-72
2023/08/16 02:54:07;;;;;;;;;2.33;2.33;;;;;23.18;54.52;101697.34;2015569;28;2747136;-72
2023/08/16 02:55:21;;;;;;;;;2.00;2.00;;;;;23.19;54.19;101695.53;2023944;28;2741920;-72
2023/08/16 02:56:34;;;;;;;;;2.00;2.00;;;;;23.18;54.36;101688.44;2014937;28;2745076;-72
2023/08/16 02:57:47;;;;;;;;;2.33;1.17;;;;;23.18;54.75;101691.13;2014840;28;2733595;-72
2023/08/16 02:58:57;;;;;;;;;5.00;3.67;;;;;23.16;54.13;101685.88;1989314;28;2748196;-72
2023/08/16 03:00:09;;;;;;;;;2.00;2.00;;;;;23.15;54.37;101685.00;2036481;28;2729465;-72
2023/08/16 03:01:22;;;;;;;;;3.50;2.00;;;;;23.14;54.38;101688.66;2038092;28;2725289;-72
2023/08/16 03:02:34;;;;;;;;;3.67;2.67;;;;;23.14;54.80;101698.50;1989407;28;2744152;-72
2023/08/16 03:03:46;;;;;;;;;3.00;3.00;;;;;23.13;54.39;101691.44;2019417;28;2750270;-72
2023/08/16 03:04:59;;;;;;;;;2.00;2.00;;;;;23.12;54.79;101684.34;2038623;28;2736712;-72
2023/08/16 03:06:13;;;;;;;;;2.33;2.33;;;;;23.10;54.25;101687.16;2012768;28;2747164;-71
2023/08/16 03:07:23;;;;;;;;;3.33;2.67;;;;;23.09;54.31;101680.06;1988685;28;2738795;-71
2023/08/16 03:08:34;;;;;;;;;4.00;3.00;;;;;23.09;54.17;101681.94;2028521;28;2745143;-71
2023/08/16 03:09:45;;;;;;;;;2.67;2.67;;;;;23.07;54.84;101686.50;2025043;28;2736707;-71
2023/08/16 03:10:57;;;;;;;;;3.50;2.00;;;;;23.06;55.02;101682.13;2041945;28;2746103;-71
2023/08/16 03:12:07;;;;;;;;;2.00;2.00;;;;;23.05;54.26;101686.63;2016856;28;2742454;-71
2023/08/16 03:13:19;;;;;;;;;2.00;2.00;;;;;23.02;55.17;101676.97;2035659;28;2739845;-71
2023/08/16 03:14:29;;;;;;;;;2.00;2.00;;;;;23.04;54.31;101676.88;1987941;28;2745077;-72
2023/08/16 03:15:40;;;;;;;;;4.00;2.33;;;;;23.02;55.00;101681.47;2026203;28;2750962;-72
2023/08/16 03:16:51;;;;;;;;;2.67;2.67;;;;;23.04;55.03;101679.53;2047945;27;2742974;-72
2023/08/16 03:18:02;;;;;;;;;5.00;2.00;;;;;23.04;54.67;101682.22;1996747;28;2746133;-72
2023/08/16 03:19:15;;;;;;;;;3.40;2.00;;;;;23.04;54.81;101680.41;2036563;28;2738803;-72
2023/08/16 03:20:28;;;;;;;;;5.33;2.33;;;;;23.05;54.44;101681.28;2036492;28;2745092;-73
2023/08/16 03:21:41;;;;;;;;;2.33;2.17;;;;;23.05;54.31;101673.22;2015958;28;2730958;-72
2023/08/16 03:22:54;;;;;;;;;2.00;2.00;;;;;23.08;55.05;101680.19;2014543;28;2741944;-72
2023/08/16 03:24:08;;;;;;;;;1.83;1.83;;;;;23.08;55.08;101686.41;2015002;28;2739896;-72
2023/08/16 03:25:21;;;;;;;;;1.00;1.00;;;;;23.08;54.29;101681.06;2013537;28;2733613;-72
2023/08/16 03:26:31;;;;;;;;;2.67;2.00;;;;;23.09;54.77;101684.59;1987608;28;2746255;-73
2023/08/16 03:27:42;;;;;;;;;2.33;2.00;;;;;23.08;54.57;101683.75;2035699;28;2730530;-72
2023/08/16 03:28:55;;;;;;;;;3.00;2.17;;;;;23.07;54.15;101682.00;2015041;28;2740882;-72
2023/08/16 03:30:10;;;;;;;;;2.50;1.50;;;;;23.08;54.96;101683.75;2013312;28;2735691;-72
2023/08/16 03:31:20;;;;;;;;;2.00;2.00;;;;;23.08;54.36;101682.88;1990138;28;2747143;-72
2023/08/16 03:32:31;;;;;;;;;2.67;2.00;;;;;23.10;54.65;101688.97;2036083;28;2739978;-73
2023/08/16 03:33:42;;;;;;;;;2.00;2.00;;;;;23.10;54.79;101689.84;2015317;28;2747641;-72
2023/08/16 03:34:53;;;;;;;;;2.00;2.00;;;;;23.12;54.10;101684.34;2035014;28;2742039;-73
2023/08/16 03:36:04;;;;;;;;;2.67;2.67;;;;;23.12;54.64;101689.72;2030588;28;3452352;-72
2023/08/16 03:37:16;;;;;;;;;2.00;1.80;;;;;23.13;54.68;101686.94;2043260;28;2740882;-72
2023/08/16 03:38:27;;;;;;;;;2.00;2.00;;;;;23.15;54.19;101690.38;1988981;28;2748250;-71
2023/08/16 03:39:38;;;;;;;;;3.00;3.00;;;;;23.13;54.37;101686.94;2026979;28;2733591;-74
2023/08/16 03:40:48;;;;;;;;;5.00;2.00;;;;;23.11;54.53;101683.50;2022691;28;2750257;-74
2023/08/16 03:41:59;;;;;;;;;3.67;2.67;;;;;23.12;54.50;101689.72;2023683;28;2743021;-73
2023/08/16 03:43:10;;;;;;;;;2.00;2.00;;;;;23.10;54.30;101687.16;2028161;28;2729447;-73
2023/08/16 03:44:21;;;;;;;;;2.00;2.00;;;;;23.08;53.94;101683.75;2022812;28;2751346;-73
2023/08/16 03:45:32;;;;;;;;;3.67;3.67;;;;;23.06;54.20;101684.81;2024295;28;2752439;-73
2023/08/16 03:46:44;;;;;;;;;2.50;2.50;;;;;23.02;54.37;101682.34;2043115;28;2745076;-75
2023/08/16 03:47:56;;;;;;;;;3.67;2.67;;;;;23.02;54.74;101684.16;2011127;28;2746153;-75
2023/08/16 03:49:07;;;;;;;;;4.00;2.00;;;;;22.99;54.31;101677.19;2015178;28;2749243;-75
2023/08/16 03:50:19;;;;;;;;;2.00;2.00;;;;;22.99;54.55;101684.41;2045165;28;2725255;-75
2023/08/16 03:51:33;;;;;;;;;2.00;2.00;;;;;22.97;54.44;101679.13;2015716;28;2747183;-75
2023/08/16 03:52:46;;;;;;;;;3.17;2.33;;;;;22.96;54.24;101679.25;2021539;28;2730891;-75
2023/08/16 03:53:59;;;;;;;;;2.67;2.67;;;;;22.95;54.76;101677.53;2013937;28;2740884;-75
2023/08/16 03:55:13;;;;;;;;;2.50;2.00;;;;;22.93;54.53;101673.16;2015263;28;2731560;-75
2023/08/16 03:56:23;;;;;;;;;3.00;2.00;;;;;22.93;54.08;101680.34;1989278;28;2750285;-75
2023/08/16 03:57:34;;;;;;;;;2.33;2.33;;;;;22.90;54.09;101676.03;2031561;28;2753405;-75
2023/08/16 03:58:45;;;;;;;;;2.00;2.00;;;;;22.90;54.13;101672.50;2042068;28;2739165;-75
2023/08/16 03:59:55;;;;;;;;;4.00;2.00;;;;;22.87;54.13;101676.25;1988483;28;2753886;-75
2023/08/16 04:01:06;;;;;;;;;4.33;2.00;;;;;22.87;54.56;101680.75;2036222;28;2744020;-76
2023/08/16 04:02:20;;;;;;;;;3.50;2.33;;;;;22.87;54.67;101680.75;2041173;28;2742988;-75
2023/08/16 04:03:30;;;;;;;;;3.33;3.33;;;;;22.86;54.57;101679.91;1996406;28;2744047;-76
2023/08/16 04:04:42;;;;;;;;;2.67;2.00;;;;;22.85;54.14;101677.31;2039346;28;2724243;-76
2023/08/16 04:05:55;;;;;;;;;4.67;1.83;;;;;22.84;54.44;101675.63;2013107;28;2734649;-76
2023/08/16 04:07:08;;;;;;;;;2.00;2.00;;;;;22.84;55.15;101681.81;2014859;28;2731575;-75
2023/08/16 04:08:18;;;;;;;;;2.67;2.67;;;;;22.85;55.00;101682.69;1990400;28;2742958;-76
2023/08/16 04:09:29;;;;;;;;;1.00;1.00;;;;;22.85;54.65;101682.69;2043590;28;2724223;-76
2023/08/16 04:10:40;;;;;;;;;2.00;2.00;;;;;22.84;54.58;101686.34;2016220;28;2744033;-76
2023/08/16 04:11:51;;;;;;;;;3.67;2.00;;;;;22.84;54.59;101678.31;2027442;28;2752351;-76
2023/08/16 04:13:03;;;;;;;;;3.50;3.50;;;;;22.82;54.90;101681.94;2035937;28;2741980;-76
2023/08/16 04:14:17;;;;;;;;;2.67;2.67;;;;;22.81;54.08;101682.06;2045103;28;2734635;-72
2023/08/16 04:15:27;;;;;;;;;2.67;2.00;;;;;22.78;54.45;101687.63;1990183;28;2753455;-73
2023/08/16 04:16:38;;;;;;;;;2.00;2.00;;;;;22.75;54.38;101677.97;2040003;28;2732569;-72
2023/08/16 04:17:50;;;;;;;;;1.75;1.75;;;;;22.73;54.83;101679.06;2041191;28;2738805;-74
2023/08/16 04:19:03;;;;;;;;;2.33;2.33;;;;;22.72;54.55;101680.03;2040679;28;2753775;-74
2023/08/16 04:20:14;;;;;;;;;2.00;2.00;;;;;22.70;54.55;101678.31;1995950;28;2746151;-73
2023/08/16 04:21:24;;;;;;;;;3.00;2.00;;;;;22.70;54.79;101680.13;2012500;28;2749221;-73
2023/08/16 04:22:35;;;;;;;;;2.00;2.00;;;;;22.68;55.10;101671.31;2036180;28;2734636;-73
2023/08/16 04:23:46;;;;;;;;;3.33;3.33;;;;;22.68;55.05;101674.00;1988455;28;3454403;-73
2023/08/16 04:24:57;;;;;;;;;3.00;3.00;;;;;22.67;55.00;101673.13;2027606;28;2746174;-73
2023/08/16 04:26:07;;;;;;;;;3.00;3.00;;;;;22.67;54.51;101664.22;2025957;28;2750255;-73
2023/08/16 04:27:18;;;;;;;;;4.00;4.00;;;;;22.68;54.65;101661.47;2023566;28;2745040;-73
2023/08/16 04:28:30;;;;;;;;;4.75;3.00;;;;;22.69;54.65;101673.06;2028334;28;2747129;-73
2023/08/16 04:29:41;;;;;;;;;2.00;2.00;;;;;22.67;54.74;101667.78;2003207;28;2750269;-73
2023/08/16 04:30:52;;;;;;;;;4.00;2.00;;;;;22.68;55.36;101669.50;2030697;28;2742995;-72
2023/08/16 04:32:05;;;;;;;;;2.33;2.33;;;;;22.70;55.63;101675.63;2043927;28;2744031;-71
2023/08/16 04:33:16;;;;;;;;;3.00;3.00;;;;;22.70;55.43;101680.13;1995661;28;2746183;-72
2023/08/16 04:34:29;;;;;;;;;2.50;1.67;;;;;22.69;54.62;101681.09;2041177;28;2739913;-72
2023/08/16 04:35:42;;;;;;;;;2.83;2.83;;;;;22.67;54.50;101678.47;2018855;28;2731531;-72
2023/08/16 04:36:53;;;;;;;;;3.00;2.00;;;;;22.66;54.78;101679.47;1990222;28;2745092;-72
2023/08/16 04:38:04;;;;;;;;;2.33;2.33;;;;;22.64;55.22;101678.72;2028295;28;2753473;-73
2023/08/16 04:39:15;;;;;;;;;5.00;3.00;;;;;22.64;56.04;101675.19;2022083;28;2754518;-74
2023/08/16 04:40:26;;;;;;;;;5.00;3.00;;;;;22.61;54.62;101670.91;2024318;28;2748682;-74
2023/08/16 04:41:37;;;;;;;;;4.00;2.75;;;;;22.60;55.59;101672.72;2036022;28;2731534;-72
2023/08/16 04:42:48;;;;;;;;;3.00;2.67;;;;;22.60;55.97;101666.50;2016245;28;2748162;-72
2023/08/16 04:43:59;;;;;;;;;2.67;2.67;;;;;22.61;55.96;101676.25;2036399;28;2731511;-72
2023/08/16 04:45:11;;;;;;;;;3.00;3.00;;;;;22.61;55.80;101673.56;2043406;28;2728188;-72
2023/08/16 04:46:24;;;;;;;;;2.67;2.67;;;;;22.58;55.06;101676.47;2044121;28;2739868;-72
2023/08/16 04:47:34;;;;;;;;;2.33;2.33;;;;;22.56;54.81;101679.25;1989791;28;2745050;-72
2023/08/16 04:48:46;;;;;;;;;3.00;3.00;;;;;22.55;55.76;101676.66;2037387;28;2741928;-73
2023/08/16 04:49:56;;;;;;;;;5.00;3.00;;;;;22.53;55.34;101674.09;2003254;28;2753454;-72
2023/08/16 04:51:07;;;;;;;;;2.33;2.33;;;;;22.52;55.25;101676.91;2032861;28;2744091;-72
2023/08/16 04:52:18;;;;;;;;;4.00;3.00;;;;;22.51;55.46;101675.16;2024384;28;2754502;-72
2023/08/16 04:53:29;;;;;;;;;2.00;2.00;;;;;22.51;55.63;101676.03;2042984;28;2744015;-72
2023/08/16 04:54:42;;;;;;;;;2.00;2.00;;;;;22.49;55.69;101673.44;2019393;28;2741971;-72
2023/08/16 04:55:53;;;;;;;;;3.00;2.00;;;;;22.51;55.38;101677.84;1990916;28;2751087;-72
2023/08/16 04:57:04;;;;;;;;;4.33;4.33;;;;;22.50;55.38;101674.31;2031688;28;2746150;-72
2023/08/16 04:58:16;;;;;;;;;3.00;3.00;;;;;22.48;55.50;101674.44;2041804;28;2742985;-72
2023/08/16 04:59:26;;;;;;;;;2.67;2.67;;;;;22.46;55.21;101671.00;2015427;28;2738815;-73
2023/08/16 05:00:38;;;;;;;;;3.00;3.00;;;;;22.46;55.39;101673.69;2035171;28;2733601;-72
2023/08/16 05:01:48;;;;;;;;;2.67;2.00;;;;;22.45;55.61;101677.31;2018035;28;2743000;-73
2023/08/16 05:03:00;;;;;;;;;3.00;3.00;;;;;22.45;55.44;101668.41;2042889;28;2730561;-73
2023/08/16 05:04:10;;;;;;;;;3.00;3.00;;;;;22.43;55.09;101676.56;2018580;28;2749368;-73
2023/08/16 05:05:22;;;;;;;;;4.00;2.50;;;;;22.42;55.75;101672.16;2043190;28;2739891;-73
2023/08/16 05:06:32;;;;;;;;;3.00;3.00;;;;;22.42;55.11;101677.50;2011194;28;2741076;-73
2023/08/16 05:07:43;;;;;;;;;4.33;3.00;;;;;22.42;55.64;101676.69;2036176;28;2753488;-73
2023/08/16 05:08:55;;;;;;;;;4.00;3.00;;;;;22.42;55.69;101676.69;2040387;28;2736747;-73
2023/08/16 05:10:08;;;;;;;;;2.00;2.00;;;;;22.43;56.37;101681.91;2040572;28;2741984;-73
2023/08/16 05:11:19;;;;;;;;;3.33;3.33;;;;;22.45;56.23;101681.81;1992747;28;3464262;-72
2023/08/16 05:12:30;;;;;;;;;2.00;2.00;;;;;22.46;56.48;101679.03;2041099;28;2725250;-73
2023/08/16 05:13:40;;;;;;;;;3.00;3.00;;;;;22.49;56.04;101686.00;1994265;28;2741960;-73
2023/08/16 05:14:51;;;;;;;;;3.33;3.00;;;;;22.49;56.23;101691.38;2033144;28;3469026;-73
2023/08/16 05:16:02;;;;;;;;;3.00;3.00;;;;;22.49;56.16;101697.56;2033260;28;2738195;-73
2023/08/16 05:17:13;;;;;;;;;3.00;3.00;;;;;22.47;55.98;101694.13;2027899;28;2752461;-73
2023/08/16 05:18:24;;;;;;;;;4.67;4.00;;;;;22.44;55.21;101693.50;2032403;28;3470086;-73
2023/08/16 05:19:35;;;;;;;;;4.00;2.00;;;;;22.41;56.38;101702.59;2029689;28;2751334;-73
2023/08/16 05:20:45;;;;;;;;;3.00;3.00;;;;;22.40;56.34;101697.34;2033479;28;2741965;-73
2023/08/16 05:21:56;;;;;;;;;6.00;4.00;;;;;22.37;56.02;101695.75;2026082;28;2739841;-73
2023/08/16 05:23:07;;;;;;;;;5.00;3.00;;;;;22.34;56.08;101695.94;2027686;28;2744071;-74
2023/08/16 05:24:19;;;;;;;;;4.75;3.00;;;;;22.33;56.23;101695.09;2036434;28;2739840;-75
2023/08/16 05:25:32;;;;;;;;;2.67;2.67;;;;;22.34;56.02;101696.81;2038394;28;2725243;-75
2023/08/16 05:26:43;;;;;;;;;6.00;4.00;;;;;22.36;55.99;101691.34;1993676;28;2746194;-75
2023/08/16 05:27:58;;;;;;;;;3.00;3.00;;;;;22.38;56.43;101692.09;2038708;28;2741960;-75
2023/08/16 05:29:08;;;;;;;;;5.33;3.67;;;;;22.41;56.75;101697.25;2011916;28;2754428;-75